CheckWX is a tool to help pilots better visualize weather data.  It is not intended as a substitute for an official pre-flight weather briefing.

09:27:24 UTC

KILG TAF
New Castle Airport
Wilmington, Delaware, USA
KILG 170624Z 1706/1806 03014G22KT P6SM OVC040 FM171000 03012G21KT P6SM OVC035 FM171600 03012G21KT P6SM OVC025 FM180400 02012G20KT P6SM OVC015

Nov-17@
06:00 UTC

Nov-17 @ 06:00 UTC

Nov-17@
10:00 UTC

Nov-17 @ 10:00 UTC

KILG 170624Z 1706/1806 03014G22KT P6SM OVC040
Wind
  • 030° at 14 KTS
  • {Gusting to 22 KTS
Cloud Levels
  • Overcast at 4,000' AGL

Nov-17@
10:00 UTC

Nov-17 @ 10:00 UTC

Nov-17@
16:00 UTC

Nov-17 @ 16:00 UTC

FM171000 03012G21KT P6SM OVC035

From

From Standard forecast or significant change

Wind
  • 030° at 12 KTS
  • {Gusting to 21 KTS
Cloud Levels
  • Overcast at 3,500' AGL

Nov-17@
16:00 UTC

Nov-17 @ 16:00 UTC

Nov-18@
04:00 UTC

Nov-18 @ 04:00 UTC

FM171600 03012G21KT P6SM OVC025

From

From Standard forecast or significant change

Wind
  • 030° at 12 KTS
  • {Gusting to 21 KTS
Cloud Levels
  • Overcast at 2,500' AGL

Nov-18@
04:00 UTC

Nov-18 @ 04:00 UTC

Nov-18@
06:00 UTC

Nov-18 @ 06:00 UTC

FM180400 02012G20KT P6SM OVC015

From

From Standard forecast or significant change

Wind
  • 020° at 12 KTS
  • {Gusting to 20 KTS
Cloud Levels
  • Overcast at 1,500' AGL